createdAt,value
2023-03-26T00:00:21.746Z,8.62
2023-03-26T00:02:52.327Z,8.62
2023-03-26T00:05:22.514Z,8.58
2023-03-26T00:07:52.596Z,8.56
2023-03-26T00:10:22.966Z,8.42
2023-03-26T00:12:55.904Z,8.40
2023-03-26T00:15:25.845Z,8.34
2023-03-26T00:17:56.486Z,8.29
2023-03-26T00:20:27.615Z,8.17
2023-03-26T00:22:57.992Z,8.33
2023-03-26T00:25:28.068Z,8.42
2023-03-26T00:28:00.792Z,8.50
2023-03-26T00:30:31.174Z,8.54
2023-03-26T00:33:01.499Z,8.56
2023-03-26T00:35:31.831Z,8.50
2023-03-26T00:38:02.406Z,8.59
2023-03-26T00:40:36.906Z,8.60
2023-03-26T00:43:18.869Z,8.58
2023-03-26T00:45:50.338Z,8.57
2023-03-26T00:48:28.668Z,8.56
2023-03-26T00:51:04.524Z,8.53
2023-03-26T00:53:35.158Z,8.54
2023-03-26T00:56:05.623Z,8.54
2023-03-26T00:58:38.833Z,8.50
2023-03-26T01:01:13.916Z,8.46
2023-03-26T01:04:00.865Z,8.55
2023-03-26T01:06:37.008Z,8.48
2023-03-26T01:09:16.104Z,8.49
2023-03-26T01:11:47.072Z,8.46
2023-03-26T01:14:23.863Z,8.48
2023-03-26T01:16:57.219Z,8.42
2023-03-26T01:19:34.125Z,8.41
2023-03-26T01:22:05.350Z,8.40
2023-03-26T01:24:38.088Z,8.40
2023-03-26T01:27:21.119Z,8.40
2023-03-26T01:29:56.088Z,8.38
2023-03-26T01:32:41.160Z,8.21
2023-03-26T01:35:21.468Z,8.37
2023-03-26T01:38:10.804Z,8.36
2023-03-26T01:40:49.637Z,8.35
2023-03-26T01:43:29.084Z,8.32
2023-03-26T01:46:03.771Z,8.29
2023-03-26T01:48:36.500Z,8.30
2023-03-26T01:51:07.701Z,8.32
2023-03-26T01:53:42.422Z,8.30
2023-03-26T01:56:22.985Z,8.28
2023-03-26T01:59:09.098Z,8.23
2023-03-26T02:01:46.396Z,8.23
2023-03-26T02:04:24.897Z,8.25
2023-03-26T02:07:06.058Z,8.20
2023-03-26T02:09:46.003Z,8.11
2023-03-26T02:12:20.551Z,8.02
2023-03-26T02:14:50.688Z,7.89
2023-03-26T02:17:24.518Z,7.82
2023-03-26T02:19:54.857Z,7.74
2023-03-26T02:22:30.198Z,7.65
2023-03-26T02:25:01.957Z,7.62
2023-03-26T02:27:35.208Z,7.55
2023-03-26T02:30:05.358Z,7.48
2023-03-26T02:32:35.619Z,7.44
2023-03-26T02:35:06.935Z,7.52
2023-03-26T02:37:38.424Z,7.53
2023-03-26T02:40:17.753Z,7.61
2023-03-26T02:42:52.477Z,7.65
2023-03-26T02:45:22.827Z,7.67
2023-03-26T02:48:11.522Z,7.69
2023-03-26T02:50:41.677Z,7.73
2023-03-26T02:53:34.319Z,7.79
2023-03-26T02:56:27.212Z,7.81
2023-03-26T02:59:18.433Z,7.82
2023-03-26T03:01:52.423Z,7.84
2023-03-26T03:04:24.229Z,7.88
2023-03-26T03:06:57.835Z,7.91
2023-03-26T03:09:29.095Z,7.91
2023-03-26T03:12:18.039Z,7.94
2023-03-26T03:14:50.647Z,7.97
2023-03-26T03:17:21.008Z,7.94
2023-03-26T03:19:51.294Z,7.94
2023-03-26T03:22:21.476Z,7.93
2023-03-26T03:24:57.812Z,7.92
2023-03-26T03:27:28.339Z,7.85
2023-03-26T03:30:11.096Z,7.73
2023-03-26T03:32:50.227Z,7.65
2023-03-26T03:35:24.578Z,7.56
2023-03-26T03:37:59.281Z,7.53
2023-03-26T03:40:31.128Z,7.38
2023-03-26T03:43:01.639Z,7.40
2023-03-26T03:45:44.917Z,7.48
2023-03-26T03:48:39.349Z,7.45
2023-03-26T03:51:10.878Z,7.47
2023-03-26T03:53:53.955Z,7.44
2023-03-26T03:56:36.210Z,7.41
2023-03-26T03:59:28.256Z,7.35
2023-03-26T04:02:01.004Z,7.35
2023-03-26T04:04:37.848Z,7.29
2023-03-26T04:07:09.930Z,7.28
2023-03-26T04:10:04.085Z,7.25
2023-03-26T04:12:54.171Z,7.21
2023-03-26T04:15:37.343Z,7.17
2023-03-26T04:18:11.952Z,7.14
2023-03-26T04:20:48.345Z,7.19
2023-03-26T04:23:38.659Z,7.26
2023-03-26T04:26:21.485Z,7.31
2023-03-26T04:29:12.080Z,7.31
2023-03-26T04:31:43.319Z,7.35
2023-03-26T04:34:25.297Z,7.44
2023-03-26T04:37:14.491Z,7.56
2023-03-26T04:39:50.299Z,7.69
2023-03-26T04:42:37.786Z,7.78
2023-03-26T04:45:33.779Z,7.79
2023-03-26T04:48:04.181Z,7.82
2023-03-26T04:50:37.607Z,7.90
2023-03-26T04:53:08.082Z,7.92
2023-03-26T04:56:02.260Z,7.93
2023-03-26T04:59:03.561Z,7.88
2023-03-26T05:01:38.040Z,7.87
2023-03-26T05:04:09.151Z,7.86
2023-03-26T05:06:43.098Z,7.78
2023-03-26T05:09:25.835Z,7.67
2023-03-26T05:12:16.933Z,7.48
2023-03-26T05:15:22.318Z,7.53
2023-03-26T05:17:58.332Z,7.56
2023-03-26T05:20:34.018Z,7.53
2023-03-26T05:23:10.890Z,7.59
2023-03-26T05:25:47.355Z,7.64
2023-03-26T05:28:24.901Z,7.69
2023-03-26T05:31:01.808Z,7.70
2023-03-26T05:33:36.956Z,7.67
2023-03-26T05:36:15.971Z,7.67
2023-03-26T05:38:53.591Z,7.65
2023-03-26T05:41:42.011Z,7.66
2023-03-26T05:44:11.997Z,7.66
2023-03-26T05:46:42.156Z,7.65
2023-03-26T05:49:15.588Z,7.71
2023-03-26T05:51:45.762Z,7.84
2023-03-26T05:54:38.531Z,7.91
2023-03-26T05:57:11.417Z,8.04
2023-03-26T06:00:16.957Z,8.12
2023-03-26T06:02:47.261Z,8.19
2023-03-26T06:05:37.422Z,8.21
2023-03-26T06:08:16.061Z,8.14
2023-03-26T06:11:01.309Z,8.10
2023-03-26T06:13:34.356Z,8.14
2023-03-26T06:16:04.693Z,8.13
2023-03-26T06:18:37.978Z,8.18
2023-03-26T06:21:46.390Z,8.24
2023-03-26T06:24:22.278Z,8.33
2023-03-26T06:27:12.269Z,8.30
2023-03-26T06:29:56.664Z,8.37
2023-03-26T06:32:40.767Z,8.39
2023-03-26T06:35:17.503Z,8.27
2023-03-26T06:37:47.701Z,8.47
2023-03-26T06:40:17.903Z,8.51
2023-03-26T06:43:29.016Z,8.55
2023-03-26T06:46:23.612Z,8.59
2023-03-26T06:49:12.495Z,8.68
2023-03-26T06:51:46.645Z,8.77
2023-03-26T06:54:42.775Z,8.82
2023-03-26T06:57:45.627Z,8.80
2023-03-26T07:00:38.701Z,8.81
2023-03-26T07:03:27.607Z,8.83
2023-03-26T07:06:16.078Z,8.86
2023-03-26T07:09:06.781Z,8.96
2023-03-26T07:11:55.712Z,8.99
2023-03-26T07:14:44.814Z,8.98
2023-03-26T07:17:36.050Z,8.94
2023-03-26T07:20:15.838Z,8.92
2023-03-26T07:22:46.855Z,9.01
2023-03-26T07:25:22.435Z,9.12
2023-03-26T07:28:28.359Z,9.32
2023-03-26T07:31:30.885Z,9.44
2023-03-26T07:34:29.369Z,9.52
2023-03-26T07:37:34.076Z,9.68
2023-03-26T07:40:49.405Z,9.87
2023-03-26T07:43:43.910Z,9.89
2023-03-26T07:46:47.996Z,9.75
2023-03-26T07:49:57.897Z,9.85
2023-03-26T07:52:41.062Z,10.00
2023-03-26T07:55:21.551Z,10.25
2023-03-26T07:58:18.458Z,10.30
2023-03-26T08:01:14.791Z,10.50
2023-03-26T08:04:23.272Z,10.65
2023-03-26T08:07:22.414Z,10.89
2023-03-26T08:10:19.857Z,10.88
2023-03-26T08:13:10.061Z,10.87
2023-03-26T08:15:48.086Z,10.76
2023-03-26T08:18:30.642Z,10.57
2023-03-26T08:21:08.186Z,10.69
2023-03-26T08:23:51.299Z,10.79
2023-03-26T08:26:34.583Z,10.78
2023-03-26T08:29:17.425Z,10.89
2023-03-26T08:31:49.528Z,10.88
2023-03-26T08:34:19.564Z,10.75
2023-03-26T08:36:49.644Z,10.70
2023-03-26T08:39:22.710Z,10.69
2023-03-26T08:42:22.456Z,10.81
2023-03-26T08:45:25.405Z,10.92
2023-03-26T08:48:29.999Z,10.95
2023-03-26T08:51:30.200Z,10.88
2023-03-26T08:54:29.620Z,10.78
2023-03-26T08:57:16.000Z,10.70
2023-03-26T09:00:20.762Z,10.71
2023-03-26T09:03:28.036Z,10.97
2023-03-26T09:06:19.865Z,11.04
2023-03-26T09:09:37.594Z,10.90
2023-03-26T09:12:39.932Z,10.91
2023-03-26T09:15:45.249Z,10.78
2023-03-26T09:18:45.619Z,10.58
2023-03-26T09:21:31.048Z,10.47
2023-03-26T09:24:34.540Z,10.43
2023-03-26T09:27:18.751Z,10.68
2023-03-26T09:30:33.463Z,10.86
2023-03-26T09:33:33.471Z,10.99
2023-03-26T09:36:33.135Z,11.09
2023-03-26T09:39:18.001Z,11.24
2023-03-26T09:42:05.122Z,11.19
2023-03-26T09:45:06.366Z,11.12
2023-03-26T09:47:53.824Z,10.97
2023-03-26T09:50:59.037Z,10.91
2023-03-26T09:53:54.275Z,10.82
2023-03-26T09:56:49.983Z,10.73
2023-03-26T09:59:55.755Z,10.80
2023-03-26T10:02:45.108Z,10.64
2023-03-26T10:05:30.255Z,10.81
2023-03-26T10:08:09.761Z,10.95
2023-03-26T10:10:52.173Z,11.00
2023-03-26T10:13:33.632Z,11.13
2023-03-26T10:16:13.388Z,11.28
2023-03-26T10:18:58.840Z,11.36
2023-03-26T10:21:41.847Z,11.48
2023-03-26T10:24:23.850Z,11.52
2023-03-26T10:27:09.422Z,11.60
2023-03-26T10:30:10.822Z,11.61
2023-03-26T10:32:49.894Z,11.52
2023-03-26T10:35:29.516Z,11.51
2023-03-26T10:38:16.814Z,11.45
2023-03-26T10:40:58.165Z,11.56
2023-03-26T10:43:54.592Z,11.75
2023-03-26T10:46:47.207Z,12.26
2023-03-26T10:49:58.336Z,12.31
2023-03-26T10:52:36.148Z,12.28
2023-03-26T10:55:14.740Z,12.21
2023-03-26T10:57:49.223Z,12.27
2023-03-26T11:00:25.547Z,12.46
2023-03-26T11:03:14.761Z,12.37
2023-03-26T11:05:52.228Z,12.42
2023-03-26T11:08:31.924Z,12.45
2023-03-26T11:11:12.138Z,12.55
2023-03-26T11:13:51.183Z,12.56
2023-03-26T11:16:28.556Z,12.37
2023-03-26T11:19:05.782Z,12.19
2023-03-26T11:21:43.227Z,12.23
2023-03-26T11:24:37.932Z,12.20
2023-03-26T11:27:20.896Z,12.04
2023-03-26T11:29:58.654Z,12.03
2023-03-26T11:32:34.827Z,12.05
2023-03-26T11:35:14.656Z,11.93
2023-03-26T11:37:48.323Z,12.09
2023-03-26T11:40:24.582Z,12.55
2023-03-26T11:43:01.423Z,12.68
2023-03-26T11:45:36.307Z,12.71
2023-03-26T11:48:11.513Z,12.93
2023-03-26T11:54:28.921Z,13.26
2023-03-26T11:57:07.404Z,13.31
2023-03-26T11:59:56.525Z,12.98
2023-03-26T12:02:34.386Z,12.84
2023-03-26T12:05:20.478Z,12.57
2023-03-26T12:07:57.016Z,12.65
2023-03-26T12:10:38.360Z,12.55
2023-03-26T12:13:33.363Z,12.50
2023-03-26T12:16:11.040Z,12.63
2023-03-26T12:18:44.049Z,12.53
2023-03-26T12:21:16.093Z,12.36
2023-03-26T12:23:57.017Z,12.34
2023-03-26T12:26:45.225Z,12.45
2023-03-26T12:29:17.410Z,12.54
2023-03-26T12:31:54.297Z,12.66
2023-03-26T12:34:26.491Z,12.56
2023-03-26T12:37:00.258Z,12.67
2023-03-26T12:40:09.380Z,12.51
2023-03-26T12:44:45.206Z,12.10
2023-03-26T12:45:25.901Z,12.01
2023-03-26T12:48:03.425Z,11.99
2023-03-26T12:50:57.550Z,12.05
2023-03-26T12:53:52.884Z,12.20
2023-03-26T12:56:36.548Z,12.14
2023-03-26T12:59:24.712Z,12.30
2023-03-26T13:02:07.881Z,12.16
2023-03-26T13:05:05.036Z,12.40
2023-03-26T13:07:52.251Z,12.59
2023-03-26T13:10:41.484Z,12.62
2023-03-26T13:13:36.539Z,12.37
2023-03-26T13:16:16.530Z,12.14
2023-03-26T13:18:53.181Z,11.91
2023-03-26T13:21:34.068Z,11.78
2023-03-26T13:24:10.780Z,11.61
2023-03-26T13:26:55.605Z,11.61
2023-03-26T13:29:32.352Z,11.56
2023-03-26T13:32:17.866Z,11.62
2023-03-26T13:35:02.731Z,11.85
2023-03-26T13:37:40.068Z,11.90
2023-03-26T13:40:25.587Z,11.81
2023-03-26T13:43:22.165Z,11.52
2023-03-26T13:46:00.602Z,11.57
2023-03-26T13:48:39.744Z,11.26
2023-03-26T13:51:14.410Z,10.90
2023-03-26T13:53:50.666Z,10.87
2023-03-26T13:56:26.608Z,11.15
2023-03-26T13:59:02.446Z,10.89
2023-03-26T14:01:41.357Z,10.79
2023-03-26T14:04:21.803Z,10.85
2023-03-26T14:06:58.136Z,10.85
2023-03-26T14:09:33.508Z,10.97
2023-03-26T14:12:21.191Z,11.15
2023-03-26T14:14:57.256Z,11.08
2023-03-26T14:17:34.602Z,11.21
2023-03-26T14:20:41.603Z,11.07
2023-03-26T14:23:35.270Z,11.26
2023-03-26T14:26:17.530Z,11.19
2023-03-26T14:29:12.862Z,11.14
2023-03-26T14:31:51.568Z,10.96
2023-03-26T14:34:33.369Z,11.03
2023-03-26T14:37:38.706Z,11.10
2023-03-26T14:40:28.094Z,11.02
2023-03-26T14:43:08.226Z,11.11
2023-03-26T14:45:55.084Z,10.98
2023-03-26T14:48:57.629Z,11.03
2023-03-26T14:51:51.627Z,10.99
2023-03-26T14:54:28.898Z,10.97
2023-03-26T14:57:29.372Z,10.86
2023-03-26T15:00:32.304Z,10.78
2023-03-26T15:03:38.835Z,10.73
2023-03-26T15:06:29.101Z,10.80
2023-03-26T15:09:31.450Z,10.86
2023-03-26T15:12:13.719Z,10.66
2023-03-26T15:15:14.022Z,10.76
2023-03-26T15:18:12.338Z,10.77
2023-03-26T15:21:18.321Z,10.89
2023-03-26T15:24:20.655Z,10.84
2023-03-26T15:27:31.526Z,10.70
2023-03-26T15:30:33.745Z,10.58
2023-03-26T15:33:31.186Z,10.59
2023-03-26T15:36:19.665Z,10.61
2023-03-26T15:39:38.223Z,10.51
2023-03-26T15:42:22.207Z,10.44
2023-03-26T15:44:57.889Z,10.26
2023-03-26T15:47:54.159Z,10.33
2023-03-26T15:50:51.006Z,10.27
2023-03-26T15:53:33.801Z,10.24
2023-03-26T15:56:21.059Z,10.21
2023-03-26T15:59:02.841Z,10.08
2023-03-26T16:01:49.199Z,10.05
2023-03-26T16:04:27.885Z,10.04
2023-03-26T16:07:03.905Z,9.97
2023-03-26T16:10:01.209Z,9.91
2023-03-26T16:12:39.342Z,9.86
2023-03-26T16:15:29.571Z,9.90
2023-03-26T16:18:32.404Z,9.81
2023-03-26T16:21:31.944Z,9.71
2023-03-26T16:24:22.606Z,9.72
2023-03-26T16:27:08.093Z,9.76
2023-03-26T16:30:20.689Z,9.79
2023-03-26T16:32:58.976Z,9.69
2023-03-26T16:36:02.601Z,9.58
2023-03-26T16:38:52.603Z,9.44
2023-03-26T16:41:25.924Z,9.31
2023-03-26T16:44:10.803Z,9.26
2023-03-26T16:46:53.082Z,9.27
2023-03-26T16:49:34.975Z,9.31
2023-03-26T16:52:24.153Z,9.30
2023-03-26T16:55:04.034Z,9.25
2023-03-26T16:57:43.771Z,9.20
2023-03-26T17:00:36.128Z,9.14
2023-03-26T17:03:29.071Z,9.11
2023-03-26T17:06:17.135Z,9.13
2023-03-26T17:08:57.553Z,9.15
2023-03-26T17:11:38.727Z,9.11
2023-03-26T17:14:24.017Z,9.02
2023-03-26T17:17:15.291Z,9.02
2023-03-26T17:19:53.044Z,9.00
2023-03-26T17:22:37.566Z,8.91
2023-03-26T17:25:35.191Z,9.01
2023-03-26T17:28:45.817Z,8.93
2023-03-26T17:31:24.098Z,8.95
2023-03-26T17:33:54.992Z,8.87
2023-03-26T17:36:43.952Z,8.81
2023-03-26T17:40:12.662Z,8.74
2023-03-26T17:43:04.267Z,8.79
2023-03-26T17:45:38.316Z,8.71
2023-03-26T17:48:21.270Z,8.67
2023-03-26T17:50:55.585Z,8.41
2023-03-26T17:53:30.974Z,8.29
2023-03-26T17:56:06.709Z,8.38
2023-03-26T17:58:39.364Z,8.31
2023-03-26T18:01:27.209Z,8.21
2023-03-26T18:04:00.650Z,8.14
2023-03-26T18:06:49.833Z,8.04
2023-03-26T18:09:37.859Z,8.04
2023-03-26T18:12:47.631Z,8.04
2023-03-26T18:15:37.140Z,8.01
2023-03-26T18:18:18.177Z,7.93
2023-03-26T18:20:49.380Z,7.84
2023-03-26T18:23:29.637Z,7.80
2023-03-26T18:26:01.613Z,7.77
2023-03-26T18:28:38.726Z,7.75
2023-03-26T18:31:18.964Z,7.68
2023-03-26T18:33:51.160Z,7.64
2023-03-26T18:36:30.066Z,7.56
2023-03-26T18:39:02.326Z,7.51
2023-03-26T18:41:37.993Z,7.32
2023-03-26T18:44:17.555Z,7.47
2023-03-26T18:46:50.060Z,7.44
2023-03-26T18:49:20.780Z,7.40
2023-03-26T18:51:57.084Z,7.38
2023-03-26T18:54:32.246Z,7.22
2023-03-26T18:57:15.210Z,7.27
2023-03-26T18:59:53.231Z,7.26
2023-03-26T19:02:24.802Z,7.24
2023-03-26T19:04:56.917Z,7.09
2023-03-26T19:07:28.911Z,6.98
2023-03-26T19:10:00.480Z,7.03
2023-03-26T19:12:35.963Z,7.00
2023-03-26T19:15:12.730Z,6.88
2023-03-26T19:17:47.374Z,6.83
2023-03-26T19:20:24.598Z,6.79
2023-03-26T19:22:56.156Z,6.57
2023-03-26T19:25:33.947Z,6.63
2023-03-26T19:28:11.344Z,6.54
2023-03-26T19:30:44.464Z,6.48
2023-03-26T19:33:18.572Z,6.37
2023-03-26T19:35:54.267Z,6.25
2023-03-26T19:38:27.644Z,6.28
2023-03-26T19:40:59.788Z,6.17
2023-03-26T19:43:30.459Z,6.06
2023-03-26T19:46:03.327Z,6.03
2023-03-26T19:51:18.597Z,5.88
2023-03-26T19:51:35.269Z,5.93
2023-03-26T19:54:16.097Z,5.82
2023-03-26T19:56:46.730Z,5.64
2023-03-26T19:59:17.297Z,5.78
2023-03-26T20:01:50.826Z,5.72
2023-03-26T20:04:21.479Z,5.72
2023-03-26T20:06:53.071Z,5.63
2023-03-26T20:09:23.380Z,5.58
2023-03-26T20:11:54.622Z,5.57
2023-03-26T20:14:29.592Z,5.54
2023-03-26T20:17:03.244Z,5.51
2023-03-26T20:19:43.939Z,5.40
2023-03-26T20:22:16.616Z,5.11
2023-03-26T20:24:47.961Z,5.34
2023-03-26T20:27:19.958Z,4.92
2023-03-26T20:30:00.341Z,5.30
2023-03-26T20:32:39.906Z,5.10
2023-03-26T20:35:36.128Z,5.21
2023-03-26T20:38:12.459Z,5.14
2023-03-26T20:40:47.809Z,5.09
2023-03-26T20:43:35.919Z,5.18
2023-03-26T20:46:14.218Z,5.16
2023-03-26T20:48:54.044Z,5.04
2023-03-26T20:52:03.153Z,5.15
2023-03-26T20:54:39.881Z,5.24
2023-03-26T20:57:18.923Z,4.98
2023-03-26T20:59:51.116Z,5.19
2023-03-26T21:02:23.883Z,5.32
2023-03-26T21:05:03.639Z,5.30
2023-03-26T21:07:35.792Z,5.23
2023-03-26T21:10:10.455Z,5.20
2023-03-26T21:12:48.424Z,5.22
2023-03-26T21:15:26.744Z,5.20
2023-03-26T21:17:58.588Z,5.16
2023-03-26T21:20:33.279Z,5.11
2023-03-26T21:23:16.642Z,5.06
2023-03-26T21:25:57.237Z,5.03
2023-03-26T21:28:41.842Z,4.99
2023-03-26T21:31:18.673Z,4.89
2023-03-26T21:33:50.854Z,4.92
2023-03-26T21:36:24.466Z,4.94
2023-03-26T21:38:55.841Z,4.81
2023-03-26T21:41:36.178Z,4.84
2023-03-26T21:44:06.635Z,4.79
2023-03-26T21:46:37.729Z,4.77
2023-03-26T21:49:08.969Z,4.76
2023-03-26T21:51:43.295Z,4.70
2023-03-26T21:54:21.038Z,4.73
2023-03-26T21:56:58.902Z,4.74
2023-03-26T21:59:39.464Z,4.73
2023-03-26T22:02:16.711Z,4.73
2023-03-26T22:04:52.605Z,4.70
2023-03-26T22:07:30.449Z,4.66
2023-03-26T22:10:01.164Z,4.66
2023-03-26T22:12:31.448Z,4.64
2023-03-26T22:15:01.839Z,4.61
2023-03-26T22:17:32.814Z,4.60
2023-03-26T22:20:07.440Z,4.67
2023-03-26T22:22:41.796Z,4.68
2023-03-26T22:25:13.182Z,4.66
2023-03-26T22:27:44.759Z,4.68
2023-03-26T22:30:16.603Z,4.50
2023-03-26T22:32:47.563Z,4.70
2023-03-26T22:35:18.746Z,4.69
2023-03-26T22:37:53.279Z,4.64
2023-03-26T22:40:32.096Z,4.62
2023-03-26T22:43:02.549Z,4.58
2023-03-26T22:45:33.383Z,4.50
2023-03-26T22:48:04.754Z,4.55
2023-03-26T22:50:35.882Z,4.52
2023-03-26T22:53:08.778Z,4.54
2023-03-26T22:55:40.516Z,4.53
2023-03-26T22:58:12.045Z,4.49
2023-03-26T23:00:43.624Z,4.53
2023-03-26T23:03:14.547Z,4.52
2023-03-26T23:05:44.742Z,4.54
2023-03-26T23:08:17.960Z,4.42
2023-03-26T23:10:48.440Z,4.47
2023-03-26T23:13:19.530Z,4.48
2023-03-26T23:15:52.645Z,4.50
2023-03-26T23:18:23.429Z,4.50
2023-03-26T23:20:56.127Z,4.54
2023-03-26T23:23:32.293Z,4.53
2023-03-26T23:26:05.235Z,4.54
2023-03-26T23:28:37.712Z,4.55
2023-03-26T23:31:13.092Z,4.51
2023-03-26T23:33:46.804Z,4.50
2023-03-26T23:36:19.010Z,4.45
2023-03-26T23:38:53.801Z,4.46
2023-03-26T23:41:27.673Z,4.45
2023-03-26T23:43:58.380Z,4.44
2023-03-26T23:46:33.276Z,4.36
2023-03-26T23:49:05.147Z,4.33
2023-03-26T23:51:37.238Z,4.31
2023-03-26T23:54:11.824Z,4.22
2023-03-26T23:56:42.080Z,4.11
2023-03-26T23:59:13.446Z,4.00
